createdAt,value
2019-06-08T00:01:12.178Z,100818.41
2019-06-08T00:03:40.705Z,100810.68
2019-06-08T00:06:09.105Z,100827.64
2019-06-08T00:08:37.542Z,100829.30
2019-06-08T00:11:06.908Z,100839.42
2019-06-08T00:13:35.315Z,100842.50
2019-06-08T00:16:04.709Z,100871.68
2019-06-08T00:18:33.212Z,100884.02
2019-06-08T00:21:01.653Z,100886.98
2019-06-08T00:23:30.058Z,100902.52
2019-06-08T00:25:58.465Z,100886.06
2019-06-08T00:28:26.898Z,100888.45
2019-06-08T00:31:02.063Z,100896.84
2019-06-08T00:33:32.425Z,100894.05
2019-06-08T00:36:01.748Z,100881.93
2019-06-08T00:38:34.059Z,100874.58
2019-06-08T00:41:04.114Z,100858.77
2019-06-08T00:43:32.539Z,100870.87
2019-06-08T00:46:00.942Z,100876.02
2019-06-08T00:48:31.761Z,100873.59
2019-06-08T00:51:00.168Z,100876.87
2019-06-08T00:53:32.752Z,100874.18
2019-06-08T00:56:01.202Z,100873.66
2019-06-08T00:58:32.044Z,100888.13
2019-06-08T01:01:01.573Z,100889.88
2019-06-08T01:03:32.371Z,100878.22
2019-06-08T01:06:01.893Z,100892.88
2019-06-08T01:08:30.288Z,100891.81
2019-06-08T01:10:58.691Z,100881.77
2019-06-08T01:13:27.116Z,100884.77
2019-06-08T01:15:56.693Z,100871.93
2019-06-08T01:18:25.902Z,100856.64
2019-06-08T01:21:08.128Z,100843.83
2019-06-08T01:23:39.047Z,100875.77
2019-06-08T01:26:07.457Z,100871.53
2019-06-08T01:28:35.871Z,100853.44
2019-06-08T01:31:04.306Z,100875.75
2019-06-08T01:33:35.124Z,100867.91
2019-06-08T01:36:03.515Z,100871.35
2019-06-08T01:38:34.028Z,100890.22
2019-06-08T01:41:02.452Z,100884.00
2019-06-08T01:43:34.725Z,100892.77
2019-06-08T01:46:04.119Z,100881.42
2019-06-08T01:48:32.523Z,100871.81
2019-06-08T01:51:24.554Z,100858.34
2019-06-08T01:53:33.080Z,100867.42
2019-06-08T01:56:01.408Z,100844.53
2019-06-08T01:58:31.449Z,100785.95
2019-06-08T02:01:01.340Z,100788.25
2019-06-08T02:03:30.256Z,100805.88
2019-06-08T02:06:06.481Z,100822.38
2019-06-08T02:08:34.863Z,100866.35
2019-06-08T02:11:03.387Z,100890.45
2019-06-08T02:13:39.840Z,100893.73
2019-06-08T02:16:14.388Z,100880.09
2019-06-08T02:18:50.846Z,100877.70
2019-06-08T02:21:17.482Z,100849.25
2019-06-08T02:23:45.875Z,100835.33
2019-06-08T02:26:17.347Z,100828.06
2019-06-08T02:28:48.619Z,100863.39
2019-06-08T02:31:24.056Z,100905.17
2019-06-08T02:33:57.643Z,100904.30
2019-06-08T02:36:31.576Z,100912.35
2019-06-08T02:39:15.022Z,100913.40
2019-06-08T02:41:43.453Z,100909.76
2019-06-08T02:44:16.027Z,100910.05
2019-06-08T02:46:47.755Z,100907.13
2019-06-08T02:49:22.604Z,100905.38
2019-06-08T02:52:04.228Z,100915.64
2019-06-08T02:54:41.304Z,100926.58
2019-06-08T02:57:19.098Z,100929.45
2019-06-08T02:59:49.641Z,100927.67
2019-06-08T03:02:19.898Z,100911.13
2019-06-08T03:04:58.862Z,100914.09
2019-06-08T03:07:30.346Z,100923.09
2019-06-08T03:09:57.639Z,100917.35
2019-06-08T03:12:27.473Z,100923.94
2019-06-08T03:14:55.854Z,100922.02
2019-06-08T03:17:26.847Z,100917.09
2019-06-08T03:20:02.328Z,100915.31
2019-06-08T03:22:32.051Z,100920.48
2019-06-08T03:25:03.123Z,100918.58
2019-06-08T03:27:37.308Z,100921.95
2019-06-08T03:30:17.742Z,100918.06
2019-06-08T03:32:50.642Z,100921.95
2019-06-08T03:35:12.867Z,100910.12
2019-06-08T03:37:42.976Z,100899.22
2019-06-08T03:40:13.865Z,100893.41
2019-06-08T03:42:41.881Z,100895.72
2019-06-08T03:45:14.412Z,100897.14
2019-06-08T03:47:43.987Z,100901.53
2019-06-08T03:50:13.215Z,100904.72
2019-06-08T03:52:42.077Z,100883.55
2019-06-08T03:55:15.796Z,100907.54
2019-06-08T03:57:44.071Z,100921.31
2019-06-08T04:00:15.926Z,100905.23
2019-06-08T04:02:46.653Z,100880.16
2019-06-08T04:05:18.697Z,100906.65
2019-06-08T04:07:47.097Z,100887.16
2019-06-08T04:10:16.328Z,100891.31
2019-06-08T04:12:46.155Z,100895.78
2019-06-08T04:15:17.165Z,100902.48
2019-06-08T04:17:48.144Z,100900.08
2019-06-08T04:20:20.957Z,100907.99
2019-06-08T04:22:50.563Z,100916.16
2019-06-08T04:25:20.061Z,100917.87
2019-06-08T04:27:48.465Z,100911.69
2019-06-08T04:30:17.481Z,100912.06
2019-06-08T04:32:47.575Z,100901.20
2019-06-08T04:35:16.203Z,100891.91
2019-06-08T04:37:52.296Z,100892.47
2019-06-08T04:40:20.885Z,100906.89
2019-06-08T04:42:50.954Z,100916.91
2019-06-08T04:45:20.948Z,100933.62
2019-06-08T04:47:50.280Z,100934.39
2019-06-08T04:50:23.448Z,100935.37
2019-06-08T04:52:57.306Z,100937.07
2019-06-08T04:55:25.363Z,100963.95
2019-06-08T04:57:53.035Z,100970.78
2019-06-08T05:00:28.828Z,100985.20
2019-06-08T05:02:55.168Z,100991.09
2019-06-08T05:05:39.162Z,100992.75
2019-06-08T05:08:04.613Z,100990.77
2019-06-08T05:10:32.947Z,100997.45
2019-06-08T05:13:04.952Z,100981.84
2019-06-08T05:15:33.393Z,100976.20
2019-06-08T05:18:02.836Z,100964.28
2019-06-08T05:20:38.991Z,100966.33
2019-06-08T05:23:11.049Z,100969.63
2019-06-08T05:25:47.321Z,100968.97
2019-06-08T05:28:20.385Z,100955.20
2019-06-08T05:30:52.723Z,100956.89
2019-06-08T05:33:21.142Z,100956.06
2019-06-08T05:35:49.828Z,100973.68
2019-06-08T05:38:21.170Z,100991.75
2019-06-08T05:40:49.903Z,100995.18
2019-06-08T05:43:19.579Z,101010.45
2019-06-08T05:45:51.402Z,101010.97
2019-06-08T05:48:22.287Z,101012.82
2019-06-08T05:51:03.112Z,101006.39
2019-06-08T05:53:43.839Z,101000.45
2019-06-08T05:56:17.798Z,100992.56
2019-06-08T05:58:51.041Z,100986.61
2019-06-08T06:01:20.494Z,100981.55
2019-06-08T06:03:53.121Z,100969.03
2019-06-08T06:06:26.463Z,100968.14
2019-06-08T06:09:00.401Z,100976.86
2019-06-08T06:11:28.810Z,100997.52
2019-06-08T06:14:01.218Z,101007.30
2019-06-08T06:16:29.003Z,101020.39
2019-06-08T06:18:58.423Z,101032.83
2019-06-08T06:21:30.755Z,101047.98
2019-06-08T06:24:02.865Z,101030.34
2019-06-08T06:26:33.235Z,101033.81
2019-06-08T06:29:02.877Z,101064.01
2019-06-08T06:31:35.293Z,101062.67
2019-06-08T06:34:09.450Z,101050.44
2019-06-08T06:36:43.921Z,101054.28
2019-06-08T06:39:12.327Z,101053.20
2019-06-08T06:41:54.497Z,101059.98
2019-06-08T06:44:47.484Z,101055.53
2019-06-08T06:47:16.873Z,101046.06
2019-06-08T06:49:48.423Z,101039.53
2019-06-08T06:52:16.791Z,101046.30
2019-06-08T06:54:45.195Z,101030.31
2019-06-08T06:57:16.094Z,101044.45
2019-06-08T06:59:45.667Z,101047.99
2019-06-08T07:02:18.117Z,101032.34
2019-06-08T07:04:47.992Z,101058.91
2019-06-08T07:07:20.829Z,101047.07
2019-06-08T07:09:50.444Z,101044.88
2019-06-08T07:12:19.081Z,101044.13
2019-06-08T07:14:51.363Z,101054.15
2019-06-08T07:17:23.986Z,101066.70
2019-06-08T07:19:52.684Z,101059.61
2019-06-08T07:22:22.100Z,101058.97
2019-06-08T07:24:54.639Z,101056.05
2019-06-08T07:27:28.052Z,101041.41
2019-06-08T07:29:59.065Z,101050.16
2019-06-08T07:32:32.378Z,101043.66
2019-06-08T07:35:07.235Z,101058.38
2019-06-08T07:37:38.990Z,101054.06
2019-06-08T07:40:07.545Z,101057.53
2019-06-08T07:42:36.924Z,101059.07
2019-06-08T07:45:06.654Z,101053.64
2019-06-08T07:47:41.365Z,101069.12
2019-06-08T07:50:19.128Z,101070.89
2019-06-08T07:52:52.854Z,101079.41
2019-06-08T07:55:21.296Z,101080.74
2019-06-08T07:57:50.482Z,101082.42
2019-06-08T08:00:24.290Z,101091.92
2019-06-08T08:03:04.892Z,101084.13
2019-06-08T08:05:34.365Z,101089.11
2019-06-08T08:08:10.917Z,101098.30
2019-06-08T08:10:39.312Z,101091.32
2019-06-08T08:13:17.970Z,101100.48
2019-06-08T08:15:50.788Z,101124.08
2019-06-08T08:18:22.068Z,101120.39
2019-06-08T08:20:51.095Z,101131.19
2019-06-08T08:23:23.529Z,101136.08
2019-06-08T08:25:51.473Z,101126.15
2019-06-08T08:28:19.939Z,101128.85
2019-06-08T08:30:52.740Z,101137.84
2019-06-08T08:33:21.185Z,101131.91
2019-06-08T08:35:51.025Z,101132.63
2019-06-08T08:38:19.953Z,101133.34
2019-06-08T08:40:51.108Z,101135.53
2019-06-08T08:43:24.665Z,101128.16
2019-06-08T08:45:59.151Z,101135.86
2019-06-08T08:48:31.725Z,101136.83
2019-06-08T08:51:03.050Z,101127.38
2019-06-08T08:53:38.689Z,101123.90
2019-06-08T08:56:07.455Z,101139.53
2019-06-08T08:58:43.784Z,101135.38
2019-06-08T09:01:20.592Z,101138.73
2019-06-08T09:03:48.163Z,101148.02
2019-06-08T09:06:18.233Z,101148.78
2019-06-08T09:08:52.029Z,101153.58
2019-06-08T09:11:20.021Z,101156.52
2019-06-08T09:13:52.398Z,101162.92
2019-06-08T09:16:21.135Z,101170.28
2019-06-08T09:18:59.337Z,101168.78
2019-06-08T09:21:28.077Z,101171.83
2019-06-08T09:23:58.828Z,100974.61
2019-06-08T09:26:31.432Z,101182.41
2019-06-08T09:29:01.091Z,101188.23
2019-06-08T09:31:30.887Z,101184.48
2019-06-08T09:34:11.037Z,101194.11
2019-06-08T09:36:40.805Z,101197.35
2019-06-08T09:39:12.582Z,101196.91
2019-06-08T09:41:47.986Z,101210.67
2019-06-08T09:44:18.475Z,101205.30
2019-06-08T09:46:48.060Z,101210.50
2019-06-08T09:49:18.801Z,101212.67
2019-06-08T09:51:48.976Z,101220.15
2019-06-08T09:54:20.753Z,101221.19
2019-06-08T09:56:53.700Z,101221.27
2019-06-08T09:59:32.152Z,101222.60
2019-06-08T10:02:07.488Z,101228.27
2019-06-08T10:04:34.814Z,101231.59
2019-06-08T10:07:08.804Z,101227.45
2019-06-08T10:09:43.470Z,101233.33
2019-06-08T10:12:18.353Z,101226.63
2019-06-08T10:17:43.651Z,101238.98
2019-06-08T10:20:18.338Z,101253.94
2019-06-08T10:22:50.028Z,101255.27
2019-06-08T10:25:28.647Z,101248.65
2019-06-08T10:28:10.231Z,101255.06
2019-06-08T10:30:38.413Z,101253.80
2019-06-08T10:33:20.663Z,101260.41
2019-06-08T10:35:55.629Z,101272.02
2019-06-08T10:38:31.322Z,101274.28
2019-06-08T10:41:19.254Z,101274.47
2019-06-08T10:43:48.040Z,101279.04
2019-06-08T10:46:19.920Z,101276.84
2019-06-08T10:48:48.752Z,101285.77
2019-06-08T10:51:26.178Z,101280.05
2019-06-08T10:54:02.201Z,101276.00
2019-06-08T10:56:43.979Z,101285.77
2019-06-08T10:59:18.540Z,101292.11
2019-06-08T11:01:47.193Z,101292.36
2019-06-08T11:04:28.495Z,101302.42
2019-06-08T11:07:00.220Z,101302.53
2019-06-08T11:09:28.506Z,101302.74
2019-06-08T11:12:14.619Z,101300.97
2019-06-08T11:14:40.821Z,101312.52
2019-06-08T11:17:27.915Z,101312.42
2019-06-08T11:20:00.963Z,101315.91
2019-06-08T11:22:30.958Z,101318.60
2019-06-08T11:25:08.730Z,101325.67
2019-06-08T11:27:38.632Z,101316.95
2019-06-08T11:30:14.264Z,101329.72
2019-06-08T11:32:41.762Z,101326.13
2019-06-08T11:35:12.586Z,101329.46
2019-06-08T11:37:42.098Z,101336.13
2019-06-08T11:40:13.517Z,101340.48
2019-06-08T11:42:44.621Z,101332.99
2019-06-08T11:45:27.650Z,101341.39
2019-06-08T11:47:50.559Z,101340.52
2019-06-08T11:50:41.501Z,101341.47
2019-06-08T11:53:19.898Z,101354.80
2019-06-08T11:55:51.092Z,101355.34
2019-06-08T11:58:35.018Z,101350.73
2019-06-08T12:01:10.003Z,101350.03
2019-06-08T12:03:39.585Z,101363.14
2019-06-08T12:06:09.470Z,101351.41
2019-06-08T12:08:38.219Z,101364.05
2019-06-08T12:11:10.658Z,101362.86
2019-06-08T12:13:37.166Z,101376.67
2019-06-08T12:16:14.640Z,101366.45
2019-06-08T12:18:41.004Z,101372.48
2019-06-08T12:21:11.111Z,101374.66
2019-06-08T12:23:49.380Z,101365.20
2019-06-08T12:26:17.785Z,101364.06
2019-06-08T12:28:48.478Z,101366.06
2019-06-08T12:31:21.452Z,101372.41
2019-06-08T12:33:48.772Z,101383.70
2019-06-08T12:36:20.719Z,101376.14
2019-06-08T12:38:48.658Z,101398.11
2019-06-08T12:41:17.157Z,101381.09
2019-06-08T12:43:47.858Z,101379.27
2019-06-08T12:46:21.505Z,101375.09
2019-06-08T12:48:53.720Z,101368.19
2019-06-08T12:51:24.038Z,101378.23
2019-06-08T12:53:52.395Z,101360.46
2019-06-08T12:56:24.101Z,101365.87
2019-06-08T12:58:50.993Z,101373.26
2019-06-08T13:01:19.396Z,101370.17
2019-06-08T13:03:48.734Z,101372.70
2019-06-08T13:06:20.080Z,101369.58
2019-06-08T13:08:54.859Z,101378.69
2019-06-08T13:11:29.682Z,101367.73
2019-06-08T13:14:04.642Z,101358.23
2019-06-08T13:16:33.073Z,101369.59
2019-06-08T13:19:01.509Z,101365.10
2019-06-08T13:21:35.159Z,101368.55
2019-06-08T13:24:00.100Z,101370.59
2019-06-08T13:26:31.019Z,101376.13
2019-06-08T13:29:05.002Z,101370.48
2019-06-08T13:31:34.411Z,101377.14
2019-06-08T13:34:11.075Z,101385.24
2019-06-08T13:36:43.120Z,101387.74
2019-06-08T13:39:13.144Z,101374.45
2019-06-08T13:41:42.981Z,101389.77
2019-06-08T13:44:14.128Z,101395.52
2019-06-08T13:46:43.600Z,101396.43
2019-06-08T13:49:14.162Z,101386.70
2019-06-08T13:51:45.443Z,101383.69
2019-06-08T13:54:19.958Z,101386.48
2019-06-08T13:56:58.765Z,101395.80
2019-06-08T13:59:33.256Z,101390.94
2019-06-08T14:02:04.368Z,101377.62
2019-06-08T14:04:39.680Z,101379.30
2019-06-08T14:07:08.915Z,101386.17
2019-06-08T14:09:47.928Z,101390.45
2019-06-08T14:12:24.030Z,101397.00
2019-06-08T14:14:58.396Z,101402.91
2019-06-08T14:17:27.956Z,101395.64
2019-06-08T14:20:04.255Z,101402.28
2019-06-08T14:22:34.329Z,101406.42
2019-06-08T14:25:10.518Z,101411.40
2019-06-08T14:27:44.153Z,101414.95
2019-06-08T14:30:23.742Z,101401.27
2019-06-08T14:32:52.247Z,101403.34
2019-06-08T14:35:22.659Z,101408.73
2019-06-08T14:37:51.274Z,101407.67
2019-06-08T14:40:28.499Z,101408.00
2019-06-08T14:42:58.110Z,101406.95
2019-06-08T14:45:30.960Z,101407.67
2019-06-08T14:48:02.898Z,101422.60
2019-06-08T14:50:31.439Z,101423.55
2019-06-08T14:53:01.315Z,101419.39
2019-06-08T14:55:49.975Z,101417.31
2019-06-08T14:58:24.068Z,101426.16
2019-06-08T15:00:52.100Z,101421.16
2019-06-08T15:03:21.206Z,101428.33
2019-06-08T15:05:49.948Z,101421.23
2019-06-08T15:08:19.530Z,101411.07
2019-06-08T15:10:50.352Z,101417.52
2019-06-08T15:13:18.957Z,101419.93
2019-06-08T15:15:48.747Z,101418.02
2019-06-08T15:18:39.265Z,101421.62
2019-06-08T15:21:00.404Z,101421.02
2019-06-08T15:23:31.090Z,101423.39
2019-06-08T15:25:58.938Z,101413.88
2019-06-08T15:28:31.556Z,101422.46
2019-06-08T15:30:59.895Z,101423.34
2019-06-08T15:33:31.041Z,101430.23
2019-06-08T15:36:01.832Z,101426.32
2019-06-08T15:38:32.360Z,101426.95
2019-06-08T15:41:03.011Z,101417.63
2019-06-08T15:43:40.219Z,101440.16
2019-06-08T15:46:08.459Z,101439.41
2019-06-08T15:48:38.175Z,101432.22
2019-06-08T15:51:10.205Z,101438.95
2019-06-08T15:53:40.376Z,101439.69
2019-06-08T15:56:08.885Z,101437.97
2019-06-08T15:58:40.379Z,101441.67
2019-06-08T16:01:17.019Z,101440.45
2019-06-08T16:03:45.458Z,101446.04
2019-06-08T16:06:13.864Z,101443.24
2019-06-08T16:08:44.313Z,101441.67
2019-06-08T16:11:12.767Z,101448.02
2019-06-08T16:13:42.181Z,101448.23
2019-06-08T16:16:10.602Z,101459.54
2019-06-08T16:18:43.208Z,101457.06
2019-06-08T16:21:11.689Z,101460.92
2019-06-08T16:23:42.895Z,101460.39
2019-06-08T16:26:11.304Z,101463.61
2019-06-08T16:28:42.158Z,101466.31
2019-06-08T16:31:10.558Z,101477.22
2019-06-08T16:33:39.723Z,101455.62
2019-06-08T16:36:08.164Z,101459.99
2019-06-08T16:38:36.738Z,101454.17
2019-06-08T16:41:07.294Z,101456.75
2019-06-08T16:43:35.320Z,101459.78
2019-06-08T16:46:08.746Z,101454.58
2019-06-08T16:48:39.419Z,101459.38
2019-06-08T16:51:13.501Z,101462.26
2019-06-08T16:53:41.900Z,101461.64
2019-06-08T16:56:17.845Z,101468.99
2019-06-08T16:58:47.344Z,101467.34
2019-06-08T17:01:20.899Z,101469.33
2019-06-08T17:03:50.359Z,101474.61
2019-06-08T17:06:21.336Z,101469.44
2019-06-08T17:08:55.841Z,101479.89
2019-06-08T17:11:24.032Z,101489.67
2019-06-08T17:13:52.466Z,101489.88
2019-06-08T17:16:20.949Z,101504.65
2019-06-08T17:18:49.380Z,101516.60
2019-06-08T17:21:20.486Z,101503.17
2019-06-08T17:23:48.904Z,101500.84
2019-06-08T17:26:17.336Z,101505.33
2019-06-08T17:28:45.747Z,101506.38
2019-06-08T17:31:14.194Z,101505.04
2019-06-08T17:33:42.586Z,101504.31
2019-06-08T17:36:14.848Z,101507.00
2019-06-08T17:38:47.924Z,101505.61
2019-06-08T17:41:16.325Z,101497.00
2019-06-08T17:43:44.727Z,101501.16
2019-06-08T17:46:13.153Z,101503.56
2019-06-08T17:48:42.822Z,101511.69
2019-06-08T17:51:11.318Z,101502.08
2019-06-08T17:53:41.030Z,101508.59
2019-06-08T17:56:09.389Z,101507.33
2019-06-08T17:58:37.797Z,101503.66
2019-06-08T18:01:06.228Z,101503.59
2019-06-08T18:03:36.093Z,101505.86
2019-06-08T18:06:07.272Z,101512.17
2019-06-08T18:08:38.447Z,101509.70
2019-06-08T18:11:07.908Z,101512.23
2019-06-08T18:13:39.083Z,101517.89
2019-06-08T18:16:08.294Z,101517.20
2019-06-08T18:18:39.206Z,101532.94
2019-06-08T18:21:08.149Z,101530.77
2019-06-08T18:23:39.962Z,101531.04
2019-06-08T18:26:07.702Z,101516.97
2019-06-08T18:28:42.385Z,101514.81
2019-06-08T18:31:11.220Z,101516.14
2019-06-08T18:33:41.692Z,101514.30
2019-06-08T18:36:09.754Z,101513.59
2019-06-08T18:38:40.833Z,101523.02
2019-06-08T18:41:08.399Z,101524.92
2019-06-08T18:43:39.563Z,101520.45
2019-06-08T18:46:10.904Z,101531.71
2019-06-08T18:48:41.779Z,101551.86
2019-06-08T18:51:13.451Z,101553.97
2019-06-08T18:54:01.814Z,101536.11
2019-06-08T18:56:12.007Z,101533.70
2019-06-08T18:58:42.151Z,101540.57
2019-06-08T19:01:21.527Z,101556.44
2019-06-08T19:03:47.983Z,101565.81
2019-06-08T19:06:18.736Z,101551.51
2019-06-08T19:08:49.358Z,101556.07
2019-06-08T19:11:19.284Z,101551.45
2019-06-08T19:13:54.264Z,101563.23
2019-06-08T19:16:22.674Z,101563.03
2019-06-08T19:18:53.839Z,101567.52
2019-06-08T19:21:22.258Z,101575.84
2019-06-08T19:23:51.584Z,101580.41
2019-06-08T19:26:22.430Z,101586.72
2019-06-08T19:28:54.355Z,101592.96
2019-06-08T19:31:22.850Z,101597.09
2019-06-08T19:33:53.358Z,101604.19
2019-06-08T19:36:21.665Z,101621.54
2019-06-08T19:38:54.251Z,101624.80
2019-06-08T19:41:24.592Z,101627.16
2019-06-08T19:43:59.084Z,101640.14
2019-06-08T19:46:34.990Z,101636.53
2019-06-08T19:49:17.307Z,101635.12
2019-06-08T19:51:52.443Z,101636.87
2019-06-08T19:54:18.649Z,101639.31
2019-06-08T19:56:54.532Z,101636.55
2019-06-08T19:59:22.988Z,101619.95
2019-06-08T20:01:56.076Z,101618.31
2019-06-08T20:04:22.596Z,101620.32
2019-06-08T20:06:50.999Z,101626.42
2019-06-08T20:09:19.405Z,101631.13
2019-06-08T20:11:56.497Z,101628.57
2019-06-08T20:14:21.410Z,101631.17
2019-06-08T20:16:50.933Z,101636.48
2019-06-08T20:19:19.465Z,101634.67
2019-06-08T20:21:55.345Z,101632.98
2019-06-08T20:24:23.767Z,101635.00
2019-06-08T20:26:54.320Z,101639.06
2019-06-08T20:29:23.584Z,101641.71
2019-06-08T20:31:59.859Z,101636.89
2019-06-08T20:34:42.343Z,101646.27
2019-06-08T20:37:28.280Z,101649.66
2019-06-08T20:40:10.168Z,101655.84
2019-06-08T20:42:37.860Z,101649.66
2019-06-08T20:45:10.283Z,101655.03
2019-06-08T20:47:51.140Z,101660.41
2019-06-08T20:50:22.437Z,101661.42
2019-06-08T20:52:52.794Z,101662.92
2019-06-08T20:55:24.087Z,101667.09
2019-06-08T20:57:53.734Z,101667.12
2019-06-08T21:00:26.498Z,101660.61
2019-06-08T21:03:03.185Z,101673.50
2019-06-08T21:05:37.529Z,101670.95
2019-06-08T21:08:08.527Z,101678.81
2019-06-08T21:10:39.347Z,101672.45
2019-06-08T21:13:17.993Z,101677.48
2019-06-08T21:15:52.641Z,101676.17
2019-06-08T21:18:24.611Z,101678.16
2019-06-08T21:21:02.377Z,101682.02
2019-06-08T21:23:34.946Z,101681.02
2019-06-08T21:26:19.773Z,101690.06
2019-06-08T21:28:51.261Z,101692.39
2019-06-08T21:31:18.351Z,101689.69
2019-06-08T21:33:49.106Z,101691.40
2019-06-08T21:36:18.265Z,101704.63
2019-06-08T21:38:50.295Z,101703.60
2019-06-08T21:41:19.500Z,101705.61
2019-06-08T21:43:53.045Z,101704.63
2019-06-08T21:46:27.514Z,101702.92
2019-06-08T21:48:59.153Z,101706.62
2019-06-08T21:51:26.964Z,101699.77
2019-06-08T21:54:00.464Z,101706.62
2019-06-08T21:56:29.207Z,101713.48
2019-06-08T21:59:01.140Z,101714.69
2019-06-08T22:01:34.852Z,101717.17
2019-06-08T22:04:03.419Z,101717.68
2019-06-08T22:06:37.340Z,101722.84
2019-06-08T22:09:14.051Z,101725.22
2019-06-08T22:11:47.123Z,101726.06
2019-06-08T22:14:21.172Z,101721.70
2019-06-08T22:16:55.568Z,101724.03
2019-06-08T22:19:27.583Z,101726.39
2019-06-08T22:22:08.335Z,101727.73
2019-06-08T22:24:41.156Z,101725.56
2019-06-08T22:27:09.551Z,101722.88
2019-06-08T22:29:41.648Z,101727.38
2019-06-08T22:32:12.460Z,101740.44
2019-06-08T22:34:47.926Z,101738.09
2019-06-08T22:37:25.612Z,101736.11
2019-06-08T22:40:10.897Z,101738.09
2019-06-08T22:42:48.096Z,101738.44
2019-06-08T22:45:17.788Z,101748.13
2019-06-08T22:47:47.840Z,101741.27
2019-06-08T22:50:18.548Z,101747.30
2019-06-08T22:52:53.527Z,101739.77
2019-06-08T22:55:27.605Z,101743.12
2019-06-08T22:58:01.421Z,101744.96
2019-06-08T23:00:50.848Z,101745.80
2019-06-08T23:03:05.440Z,101742.61
2019-06-08T23:05:36.028Z,101746.11
2019-06-08T23:08:06.252Z,101746.45
2019-06-08T23:10:34.565Z,101738.77
2019-06-08T23:13:04.348Z,101738.27
2019-06-08T23:15:33.145Z,101743.80
2019-06-08T23:18:06.642Z,101739.94
2019-06-08T23:20:39.251Z,101736.09
2019-06-08T23:23:11.623Z,101741.27
2019-06-08T23:25:40.992Z,101748.66
2019-06-08T23:28:10.006Z,101749.14
2019-06-08T23:30:40.574Z,101745.47
2019-06-08T23:33:11.232Z,101754.83
2019-06-08T23:36:07.849Z,101757.52
2019-06-08T23:38:11.343Z,101752.13
2019-06-08T23:40:43.733Z,101753.77
2019-06-08T23:43:14.870Z,101764.98
2019-06-08T23:45:44.200Z,101764.45
2019-06-08T23:48:17.449Z,101766.41
2019-06-08T23:50:48.075Z,101767.72
2019-06-08T23:53:18.234Z,101762.20
2019-06-08T23:55:50.082Z,101761.16
2019-06-08T23:58:22.694Z,101759.52
